Time;durP1;ratioP1;P1;durP2;ratioP2;P2;SDS_P1;SDS_P2;PMS_P1;PMS_P2;Temp;Humidity;BMP_temperature;BMP_pressure;BME280_temperature;BME280_humidity;BME280_pressure;Samples;Min_cycle;Max_cycle;Signal;HPM_P1;HPM_P2
2022/02/19 00:00:41;;;;;;;11.07;4.65;;;;;;;1.96;57.72;97151.81;5025154;28;20049;-59
2022/02/19 00:03:09;;;;;;;14.05;5.03;;;;;;;2.32;57.86;97198.16;5024962;28;20136;-59
2022/02/19 00:05:37;;;;;;;12.52;4.65;;;;;;;0.95;57.75;97014.38;5024860;28;20057;-59
2022/02/19 00:08:04;;;;;;;10.32;3.95;;;;;;;2.04;58.63;97216.63;5023220;28;20049;-59
2022/02/19 00:10:31;;;;;;;16.73;5.85;;;;;;;1.81;58.76;97176.78;5024463;28;20068;-59
2022/02/19 00:12:58;;;;;;;11.75;4.97;;;;;;;1.99;59.49;97199.56;5023263;28;20064;-59
2022/02/19 00:15:25;;;;;;;14.65;5.03;;;;;;;1.94;59.42;97196.94;5024749;28;20061;-59
2022/02/19 00:17:53;;;;;;;13.80;4.43;;;;;;;1.88;59.94;97192.75;5024666;28;20063;-59
2022/02/19 00:20:20;;;;;;;12.35;3.95;;;;;;;1.87;59.17;97185.66;5025165;28;20068;-60
2022/02/19 00:22:47;;;;;;;7.07;2.90;;;;;;;1.89;59.01;97194.34;5024858;28;20045;-59
2022/02/19 00:25:13;;;;;;;6.70;2.42;;;;;;;1.84;59.48;97180.81;5024574;28;20439;-59
2022/02/19 00:27:40;;;;;;;6.47;2.35;;;;;;;1.79;59.18;97150.94;5024555;28;20054;-59
2022/02/19 00:30:08;;;;;;;8.55;2.60;;;;;;;1.75;58.66;97177.22;5024249;28;20053;-58
2022/02/19 00:32:36;;;;;;;9.68;2.42;;;;;;;1.73;58.29;97201.28;5024241;28;20106;-59
2022/02/19 00:35:03;;;;;;;10.95;3.60;;;;;;;1.09;59.53;97110.56;5017576;28;20432;-60
2022/02/19 00:37:30;;;;;;;8.95;3.38;;;;;;;1.25;60.50;97130.09;5004605;28;20513;-59
2022/02/19 00:39:57;;;;;;;9.88;2.78;;;;;;;1.62;60.54;97186.28;5004339;28;20062;-59
2022/02/19 00:42:24;;;;;;;9.57;2.85;;;;;;;1.56;61.65;97186.38;5004245;28;20045;-60
2022/02/19 00:44:51;;;;;;;22.10;6.78;;;;;;;1.20;61.73;97136.50;5004620;28;20057;-60
2022/02/19 00:47:18;;;;;;;11.73;4.18;;;;;;;1.55;61.93;97182.06;5003348;28;20137;-59
2022/02/19 00:49:46;;;;;;;16.05;5.22;;;;;;;1.71;61.47;97187.16;5004230;28;20058;-60
2022/02/19 00:52:13;;;;;;;11.82;3.78;;;;;;;1.77;61.40;97191.38;5002523;28;20050;-60
2022/02/19 00:54:40;;;;;;;10.50;3.13;;;;;;;1.77;61.49;97191.38;5004200;28;20049;-59
2022/02/19 00:57:06;;;;;;;9.70;2.85;;;;;;;1.63;61.58;97201.56;5002599;28;20054;-61
2022/02/19 00:59:33;;;;;;;8.85;3.05;;;;;;;1.06;63.02;97182.09;5004141;28;20065;-59
2022/02/19 01:01:59;;;;;;;11.10;3.42;;;;;;;1.22;63.90;97193.47;5002958;28;20080;-60
2022/02/19 01:04:26;;;;;;;13.18;4.25;;;;;;;1.28;64.10;97201.25;5002924;28;20050;-59
2022/02/19 01:06:53;;;;;;;11.25;4.55;;;;;;;1.41;64.20;97194.13;5004273;28;20176;-60
2022/02/19 01:09:21;;;;;;;16.65;6.50;;;;;;;1.43;64.04;97192.72;5003694;28;20531;-59
2022/02/19 01:11:47;;;;;;;9.63;3.83;;;;;;;1.36;64.20;97203.25;5004372;28;20046;-59
2022/02/19 01:14:14;;;;;;;12.82;4.70;;;;;;;1.36;65.44;97203.25;5003626;28;20042;-59
2022/02/19 01:16:41;;;;;;;11.43;4.20;;;;;;;1.47;62.80;97199.16;5004378;28;20268;-59
2022/02/19 01:19:07;;;;;;;16.85;4.97;;;;;;;1.32;63.53;97185.88;5003563;28;20056;-60
2022/02/19 01:21:34;;;;;;;14.02;5.63;;;;;;;1.46;64.25;97203.03;5004389;28;20050;-59
2022/02/19 01:24:01;;;;;;;25.17;8.85;;;;;;;1.58;63.48;97209.84;5004006;28;20056;-60
2022/02/19 01:26:28;;;;;;;25.75;8.75;;;;;;;1.39;63.84;97197.16;5002643;28;20053;-59
2022/02/19 01:28:54;;;;;;;14.35;5.72;;;;;;;1.15;64.03;97183.00;5002226;28;20054;-59
2022/02/19 01:31:21;;;;;;;12.82;3.78;;;;;;;1.23;63.16;97187.69;5003767;28;20440;-59
2022/02/19 01:33:48;;;;;;;14.50;4.25;;;;;;;1.37;63.49;97195.88;5003271;28;20141;-59
2022/02/19 01:36:15;;;;;;;11.55;4.97;;;;;;;0.81;63.38;97130.84;5019908;28;20049;-61
2022/02/19 01:38:41;;;;;;;14.95;4.40;;;;;;;1.31;62.76;97195.16;5023157;28;20583;-59
2022/02/19 01:41:08;;;;;;;17.27;4.78;;;;;;;1.30;63.61;97198.19;5022353;28;20136;-60
2022/02/19 01:43:35;;;;;;;11.98;3.97;;;;;;;1.22;63.90;97172.47;5023332;28;20057;-61
2022/02/19 01:46:01;;;;;;;17.88;6.88;;;;;;;1.33;63.67;97184.75;5023498;28;20076;-60
2022/02/19 01:48:28;;;;;;;11.90;3.58;;;;;;;1.04;64.61;97173.41;5023425;28;20057;-60
2022/02/19 01:50:55;;;;;;;12.73;3.55;;;;;;;0.82;64.88;97156.97;5023235;28;20493;-58
2022/02/19 01:53:22;;;;;;;11.90;3.83;;;;;;;0.56;64.60;97111.50;5022949;28;20433;-58
2022/02/19 01:55:49;;;;;;;9.57;3.42;;;;;;;0.64;64.92;97127.94;5023860;28;20053;-58
2022/02/19 01:58:16;;;;;;;7.82;2.53;;;;;;;1.18;64.12;97200.66;5022315;28;20049;-58
2022/02/19 02:00:43;;;;;;;9.20;2.80;;;;;;;1.16;64.38;97200.97;5023277;28;20054;-59
2022/02/19 02:03:10;;;;;;;5.43;2.40;;;;;;;1.17;64.10;97204.53;5023620;28;20053;-58
2022/02/19 02:05:37;;;;;;;7.43;2.72;;;;;;;0.95;63.81;97183.44;5023179;28;20057;-58
2022/02/19 02:08:07;;;;;;;8.25;1.92;;;;;;;0.54;64.07;97127.38;5022993;28;20049;-57
2022/02/19 02:10:35;;;;;;;6.72;1.95;;;;;;;1.01;63.73;97201.28;5021311;28;20049;-57
2022/02/19 02:13:04;;;;;;;10.25;2.95;;;;;;;0.23;63.68;97075.41;5022969;28;20085;-59
2022/02/19 02:15:33;;;;;;;9.98;2.80;;;;;;;0.53;64.16;97151.06;5021811;28;20551;-57
2022/02/19 02:18:00;;;;;;;7.20;2.53;;;;;;;0.61;64.08;97150.38;5023197;28;20049;-58
2022/02/19 02:20:27;;;;;;;9.43;2.88;;;;;;;0.97;64.72;97202.22;5022827;28;20109;-57
2022/02/19 02:22:54;;;;;;;6.57;2.60;;;;;;;0.89;64.94;97192.84;5022677;28;20056;-58
2022/02/19 02:25:32;;;;;;;12.02;3.78;;;;;;;0.93;64.21;97193.81;5022944;28;20056;-59
2022/02/19 02:28:00;;;;;;;7.78;2.92;;;;;;;0.81;65.12;97188.09;5022905;28;20101;-59
2022/02/19 02:30:31;;;;;;;14.43;2.75;;;;;;;0.75;66.38;97192.03;5024448;28;20566;-57
2022/02/19 02:33:08;;;;;;;8.38;2.40;;;;;;;0.75;66.37;97197.50;5026255;28;20068;-58
2022/02/19 02:35:35;;;;;;;10.05;3.15;;;;;;;0.68;66.98;97221.59;5014944;28;20172;-57
2022/02/19 02:38:03;;;;;;;12.10;3.47;;;;;;;0.66;67.92;97199.31;5007289;28;20060;-58
2022/02/19 02:40:31;;;;;;;10.60;2.50;;;;;;;0.72;66.52;97192.66;5006745;28;20058;-59
2022/02/19 02:42:58;;;;;;;7.88;2.90;;;;;;;0.78;67.23;97191.44;5006903;28;20068;-57
2022/02/19 02:45:25;;;;;;;12.13;2.90;;;;;;;0.77;67.05;97200.72;5005132;28;20053;-58
2022/02/19 02:48:11;;;;;;;15.75;4.03;;;;;;;0.88;67.57;97207.59;5006262;28;20065;-57
2022/02/19 02:50:39;;;;;;;6.72;2.58;;;;;;;0.89;66.87;97202.91;5006470;28;20061;-59
2022/02/19 02:53:26;;;;;;;12.02;4.28;;;;;;;0.42;65.86;97137.94;5006572;28;20527;-58
2022/02/19 02:55:53;;;;;;;15.73;4.85;;;;;;;0.91;66.37;97212.44;5007057;28;20464;-61
2022/02/19 02:58:21;;;;;;;11.63;4.93;;;;;;;0.47;66.22;97151.47;5007105;28;20439;-58
2022/02/19 03:00:48;;;;;;;12.65;5.70;;;;;;;0.92;67.88;97221.41;5006846;28;20414;-58
2022/02/19 03:03:15;;;;;;;24.95;9.55;;;;;;;0.93;68.20;97226.53;5006930;28;20053;-58
2022/02/19 03:05:42;;;;;;;51.25;17.20;;;;;;;0.97;68.05;97227.56;5006593;28;20057;-60
2022/02/19 03:08:09;;;;;;;26.42;9.80;;;;;;;0.98;68.39;97233.84;5006376;28;20046;-59
2022/02/19 03:10:36;;;;;;;21.83;7.28;;;;;;;0.98;68.25;97218.25;5005240;28;20054;-58
2022/02/19 03:13:03;;;;;;;16.65;5.82;;;;;;;1.01;67.90;97231.28;5006795;28;20050;-58
2022/02/19 03:15:29;;;;;;;10.75;3.10;;;;;;;0.94;67.90;97232.81;5006258;28;20052;-59
2022/02/19 03:17:56;;;;;;;7.20;2.28;;;;;;;0.83;67.41;97232.22;5004645;28;20068;-58
2022/02/19 03:20:24;;;;;;;13.82;2.78;;;;;;;0.92;67.04;97230.41;5004357;28;20050;-58
2022/02/19 03:22:50;;;;;;;11.55;5.18;;;;;;;0.77;67.26;97228.00;5005841;28;20045;-58
2022/02/19 03:25:17;;;;;;;13.95;5.78;;;;;;;0.72;68.28;97235.44;5005767;28;20061;-58
2022/02/19 03:27:45;;;;;;;10.73;4.18;;;;;;;-1.61;68.09;96878.16;5004654;28;20076;-58
2022/02/19 03:30:12;;;;;;;13.07;3.85;;;;;;;0.03;68.62;97152.06;5005838;28;20053;-59
2022/02/19 03:32:40;;;;;;;29.85;7.78;;;;;;;0.60;68.52;97248.78;5004244;28;20251;-58
2022/02/19 03:35:07;;;;;;;28.08;8.57;;;;;;;0.41;67.26;97216.13;5012136;28;20053;-58
2022/02/19 03:37:36;;;;;;;20.13;5.93;;;;;;;0.64;66.80;97253.31;5025781;28;20059;-58
2022/02/19 03:40:06;;;;;;;13.35;3.55;;;;;;;0.17;66.88;97180.13;5025285;28;20049;-59
2022/02/19 03:42:35;;;;;;;11.05;3.97;;;;;;;0.76;67.66;97253.63;5024660;28;20060;-58
2022/02/19 03:45:05;;;;;;;7.72;3.38;;;;;;;0.23;68.94;97199.88;5025531;28;20342;-59
2022/02/19 03:47:32;;;;;;;12.00;2.72;;;;;;;0.55;69.41;97246.97;5026278;28;20056;-58
2022/02/19 03:49:58;;;;;;;8.85;3.03;;;;;;;0.10;69.63;97184.31;5023492;28;20049;-58
2022/02/19 03:52:25;;;;;;;7.88;2.08;;;;;;;0.48;69.39;97248.44;5024835;28;20050;-58
2022/02/19 03:54:52;;;;;;;7.80;2.70;;;;;;;0.36;69.28;97248.94;5023843;28;20053;-57
2022/02/19 03:57:18;;;;;;;7.13;2.47;;;;;;;0.41;69.35;97251.56;5024942;28;20439;-57
2022/02/19 03:59:45;;;;;;;11.18;2.95;;;;;;;-0.04;70.20;97187.03;5023776;28;20045;-58
2022/02/19 04:02:12;;;;;;;10.27;3.92;;;;;;;0.44;69.94;97248.25;5024677;28;20060;-58
2022/02/19 04:04:38;;;;;;;11.35;3.55;;;;;;;0.38;69.90;97214.03;5024762;28;20057;-60
2022/02/19 04:07:05;;;;;;;11.68;3.92;;;;;;;-0.15;69.07;97134.69;5024834;28;20054;-58
2022/02/19 04:09:32;;;;;;;7.10;2.80;;;;;;;0.52;69.28;97247.53;5025070;28;20057;-58
2022/02/19 04:11:59;;;;;;;13.93;4.10;;;;;;;0.50;69.85;97232.59;5025388;28;20053;-56
2022/02/19 04:14:26;;;;;;;13.25;4.53;;;;;;;0.45;69.58;97235.41;5024877;28;20045;-59
2022/02/19 04:16:53;;;;;;;15.07;4.95;;;;;;;0.31;69.81;97212.81;5023566;28;20057;-58
2022/02/19 04:19:20;;;;;;;11.10;3.80;;;;;;;0.47;70.79;97233.22;5024845;28;20049;-59
2022/02/19 04:21:46;;;;;;;18.17;7.22;;;;;;;0.43;70.75;97233.00;5024959;28;20045;-57
2022/02/19 04:24:13;;;;;;;31.10;11.25;;;;;;;0.19;69.80;97194.22;5024533;28;20060;-58
2022/02/19 04:26:40;;;;;;;29.75;11.07;;;;;;;0.23;70.20;97187.06;5022946;28;20057;-58
2022/02/19 04:29:07;;;;;;;22.38;8.43;;;;;;;0.45;69.78;97241.69;5022610;28;20053;-57
2022/02/19 04:31:33;;;;;;;26.83;7.47;;;;;;;0.47;69.82;97223.13;5024041;28;20065;-60
2022/02/19 04:34:00;;;;;;;18.75;7.50;;;;;;;0.16;70.85;97177.69;5023952;28;20053;-57
2022/02/19 04:36:27;;;;;;;24.42;8.90;;;;;;;0.49;70.27;97226.34;5006344;28;20049;-58
2022/02/19 04:38:53;;;;;;;11.90;5.28;;;;;;;0.11;70.23;97170.44;5003541;28;20050;-57
2022/02/19 04:41:20;;;;;;;20.13;6.65;;;;;;;0.50;70.09;97233.41;5004767;28;20050;-61
2022/02/19 04:43:46;;;;;;;33.10;11.70;;;;;;;0.55;69.95;97233.34;5004419;28;20057;-57
2022/02/19 04:46:13;;;;;;;34.67;12.18;;;;;;;0.61;69.46;97239.47;5004870;28;20160;-57
2022/02/19 04:48:40;;;;;;;31.17;9.55;;;;;;;0.04;69.85;97148.22;5004193;28;20057;-58
2022/02/19 04:51:07;;;;;;;40.25;13.63;;;;;;;0.58;69.34;97237.38;5003807;28;20050;-57
2022/02/19 04:53:33;;;;;;;33.25;13.00;;;;;;;0.33;69.85;97219.59;5003838;28;20061;-59
2022/02/19 04:56:00;;;;;;;39.08;14.05;;;;;;;0.43;70.38;97233.00;5003173;28;20057;-58
2022/02/19 04:58:27;;;;;;;34.65;12.35;;;;;;;0.54;70.29;97239.09;5004407;28;20080;-58
2022/02/19 05:00:54;;;;;;;42.28;14.45;;;;;;;0.50;70.05;97238.88;5004565;28;20065;-58
2022/02/19 05:03:21;;;;;;;40.85;13.25;;;;;;;0.52;70.92;97242.09;5004144;28;20516;-56
2022/02/19 05:05:48;;;;;;;18.20;7.38;;;;;;;0.58;70.09;97248.25;5003933;28;20046;-57
2022/02/19 05:08:14;;;;;;;13.57;6.05;;;;;;;0.43;70.02;97254.78;5004420;28;20054;-58
2022/02/19 05:10:41;;;;;;;18.85;5.93;;;;;;;0.45;71.60;97258.03;5004409;28;20083;-58
2022/02/19 05:13:08;;;;;;;21.70;6.63;;;;;;;0.54;70.18;97255.44;5004380;28;20061;-57
2022/02/19 05:15:35;;;;;;;31.13;9.90;;;;;;;-7.69;69.38;95945.44;5004310;28;20045;-57
2022/02/19 05:18:05;;;;;;;26.63;9.98;;;;;;;-0.06;70.13;97181.88;5003647;28;20054;-57
2022/02/19 05:20:32;;;;;;;43.45;13.57;;;;;;;0.44;70.25;97280.94;5002532;28;20133;-58
2022/02/19 05:22:58;;;;;;;53.83;16.45;;;;;;;0.49;70.15;97264.47;5002370;28;20069;-57
2022/02/19 05:25:25;;;;;;;29.55;11.02;;;;;;;0.48;69.83;97278.41;5002453;28;20058;-57
2022/02/19 05:27:52;;;;;;;30.95;11.07;;;;;;;0.58;69.77;97273.59;5003965;28;20057;-59
2022/02/19 05:30:18;;;;;;;18.15;7.03;;;;;;;0.19;70.65;97237.78;5004154;28;20147;-59
2022/02/19 05:32:45;;;;;;;30.17;8.90;;;;;;;0.48;71.46;97279.22;5003458;28;20444;-60
2022/02/19 05:35:12;;;;;;;23.42;8.95;;;;;;;0.44;70.87;97250.16;5009890;28;20084;-61
2022/02/19 05:37:39;;;;;;;33.17;13.02;;;;;;;0.72;69.92;97288.06;5023024;28;20049;-60
2022/02/19 05:40:06;;;;;;;59.60;21.17;;;;;;;0.83;68.95;97297.66;5023251;28;20064;-59
2022/02/19 05:42:33;;;;;;;89.25;30.15;;;;;;;0.73;68.84;97276.03;5022022;28;20085;-60
2022/02/19 05:45:00;;;;;;;58.72;23.35;;;;;;;-0.33;69.05;97104.78;5023296;28;20530;-57
2022/02/19 05:47:27;;;;;;;56.30;20.45;;;;;;;1.01;69.79;97315.03;5023270;28;20530;-58
2022/02/19 05:49:53;;;;;;;29.38;12.00;;;;;;;1.23;67.92;97296.81;5023603;28;20053;-58
2022/02/19 05:52:20;;;;;;;32.30;11.85;;;;;;;1.20;68.54;97319.25;5021692;28;20468;-59
2022/02/19 05:54:47;;;;;;;43.08;14.75;;;;;;;1.22;68.49;97299.88;5023238;28;20061;-59
2022/02/19 05:57:14;;;;;;;81.07;21.50;;;;;;;1.32;68.55;97286.84;5023304;28;20057;-60
2022/02/19 05:59:41;;;;;;;85.13;26.80;;;;;;;1.42;68.70;97370.41;5022893;28;20050;-57
2022/02/19 06:02:08;;;;;;;55.30;17.92;;;;;;;1.62;68.53;97287.28;5000830;28;20056;-59
2022/02/19 06:04:34;;;;;;;28.90;12.02;;;;;;;1.69;67.78;97293.13;5012603;28;20049;-59
2022/02/19 06:07:01;;;;;;;37.92;13.90;;;;;;;1.42;66.89;97221.09;5026828;28;20068;-58
2022/02/19 06:09:28;;;;;;;32.63;12.32;;;;;;;1.89;65.34;97251.69;5025758;28;20137;-60
2022/02/19 06:11:54;;;;;;;49.78;16.73;;;;;;;1.86;65.30;97250.41;5026943;28;20050;-57
2022/02/19 06:14:21;;;;;;;33.75;15.05;;;;;;;2.31;65.10;97300.41;5025495;28;20060;-58
2022/02/19 06:16:49;;;;;;;24.23;10.25;;;;;;;2.30;64.62;97304.22;5027057;28;20064;-59
2022/02/19 06:19:17;;;;;;;28.85;11.85;;;;;;;2.50;64.03;97303.72;5027222;28;20049;-58
2022/02/19 06:21:44;;;;;;;30.77;11.60;;;;;;;2.56;63.92;97313.44;5027430;28;20092;-59
2022/02/19 06:24:10;;;;;;;32.28;12.85;;;;;;;2.67;63.53;97303.84;5027810;28;20722;-57
2022/02/19 06:26:37;;;;;;;34.42;12.98;;;;;;;2.87;63.10;97301.38;5026607;28;20068;-57
2022/02/19 06:29:04;;;;;;;34.90;11.13;;;;;;;0.75;62.09;96940.44;5026751;28;20659;-60
2022/02/19 06:31:31;;;;;;;31.75;10.82;;;;;;;2.54;62.36;97220.78;5026472;28;20508;-60
2022/02/19 06:33:57;;;;;;;25.55;8.93;;;;;;;3.30;62.35;97301.53;5026043;28;20053;-60
2022/02/19 06:36:24;;;;;;;19.83;8.32;;;;;;;3.59;61.28;97303.72;5026644;28;20056;-59
2022/02/19 06:38:51;;;;;;;27.90;10.82;;;;;;;3.74;60.23;97309.53;5026586;28;20053;-57
2022/02/19 06:41:18;;;;;;;27.75;13.18;;;;;;;3.91;60.10;97306.81;5026519;28;20045;-61
2022/02/19 06:43:44;;;;;;;29.85;12.00;;;;;;;4.06;59.32;97309.06;5024741;28;20057;-60
2022/02/19 06:46:11;;;;;;;29.15;12.10;;;;;;;4.29;58.19;97302.31;5026720;28;20430;-60
2022/02/19 06:48:38;;;;;;;30.75;13.07;;;;;;;4.44;57.86;97288.09;5026290;28;20049;-59
2022/02/19 06:51:05;;;;;;;32.38;14.45;;;;;;;4.34;57.78;97239.09;5024815;28;20053;-57
2022/02/19 06:53:32;;;;;;;43.83;18.90;;;;;;;4.62;56.01;97270.47;4998450;28;20461;-60
2022/02/19 06:55:58;;;;;;;45.65;22.38;;;;;;;5.08;55.48;97310.03;4988694;28;20073;-59
2022/02/19 06:58:25;;;;;;;42.45;20.05;;;;;;;4.29;54.40;97157.00;4987791;28;20066;-59
2022/02/19 07:00:53;;;;;;;40.15;19.40;;;;;;;5.41;54.21;97300.03;5006502;28;20065;-60
2022/02/19 07:03:20;;;;;;;35.15;16.42;;;;;;;5.50;53.57;97292.59;5004105;28;20119;-59
2022/02/19 07:05:51;;;;;;;36.30;14.77;;;;;;;5.74;53.71;97287.25;5006215;28;20049;-60
2022/02/19 07:08:19;;;;;;;34.00;15.63;;;;;;;5.86;52.39;97265.38;5004371;28;20436;-61
2022/02/19 07:10:47;;;;;;;26.52;13.25;;;;;;;6.16;51.60;97283.44;5005939;28;20058;-57
2022/02/19 07:13:14;;;;;;;34.72;15.77;;;;;;;6.29;51.30;97282.34;4997941;28;20054;-57
2022/02/19 07:15:41;;;;;;;30.63;14.10;;;;;;;6.14;51.60;97225.22;5012914;28;20065;-60
2022/02/19 07:18:08;;;;;;;23.48;11.75;;;;;;;6.58;51.04;97268.47;4988463;28;20069;-57
2022/02/19 07:20:37;;;;;;;38.47;15.50;;;;;;;6.78;50.66;97277.84;4998196;28;20133;-65
2022/02/19 07:23:03;;;;;;;29.95;14.85;;;;;;;6.76;50.71;97275.41;4995041;28;20054;-69
2022/02/19 07:25:30;;;;;;;36.67;14.80;;;;;;;7.09;50.50;97267.09;4991200;28;20053;-59
2022/02/19 07:27:57;;;;;;;32.45;15.50;;;;;;;7.18;49.85;97254.03;4993339;28;20089;-57
2022/02/19 07:30:25;;;;;;;34.80;14.98;;;;;;;7.51;49.62;97280.34;4989850;28;20057;-61
2022/02/19 07:32:52;;;;;;;28.25;13.35;;;;;;;7.47;49.77;97243.59;4996367;28;20056;-61
2022/02/19 07:35:20;;;;;;;23.35;9.85;;;;;;;7.77;49.13;97259.88;4994741;28;20061;-59
2022/02/19 07:37:48;;;;;;;25.27;9.73;;;;;;;7.99;49.23;97262.94;4992748;28;20068;-61
2022/02/19 07:40:15;;;;;;;25.98;11.50;;;;;;;7.97;49.58;97258.91;4994455;28;20057;-57
2022/02/19 07:42:42;;;;;;;22.02;10.13;;;;;;;7.98;49.57;97266.03;5005442;28;20056;-61
2022/02/19 07:45:09;;;;;;;33.83;12.90;;;;;;;7.57;50.43;97217.53;5005606;28;20050;-64
2022/02/19 07:47:36;;;;;;;24.55;9.90;;;;;;;7.90;49.31;97236.63;5013434;28;20124;-61
2022/02/19 07:58:19;;;;;;;18.30;7.43;;;;;;;9.12;46.30;97264.19;4993125;28;20053;-57
2022/02/19 08:00:54;;;;;;;8.50;3.35;;;;;;;8.55;44.66;97274.88;4994712;28;20233;-58
2022/02/19 08:03:23;;;;;;;8.68;3.80;;;;;;;8.88;46.03;97275.41;4989229;28;20172;-62
2022/02/19 08:05:51;;;;;;;15.20;4.78;;;;;;;9.20;45.21;97268.72;4994717;28;20042;-61
2022/02/19 08:08:19;;;;;;;11.32;5.07;;;;;;;9.53;45.16;97265.63;5001848;28;20440;-55
2022/02/19 08:10:46;;;;;;;16.75;6.75;;;;;;;9.32;44.74;97260.38;4990032;28;20050;-56
2022/02/19 08:13:18;;;;;;;13.90;5.70;;;;;;;9.55;44.93;97258.56;4992124;28;20046;-61
2022/02/19 08:15:45;;;;;;;14.65;6.75;;;;;;;9.64;44.49;97256.41;4992448;28;20058;-60
2022/02/19 08:18:13;;;;;;;10.18;5.20;;;;;;;9.77;44.46;97260.69;4999663;28;20049;-61
2022/02/19 08:20:42;;;;;;;15.57;5.97;;;;;;;10.14;43.58;97264.72;4994669;28;20514;-57
2022/02/19 08:23:10;;;;;;;15.82;5.45;;;;;;;10.08;42.81;97221.91;4989201;28;20045;-58
2022/02/19 08:25:38;;;;;;;34.45;8.60;;;;;;;9.92;42.34;97257.09;4985840;28;20054;-57
2022/02/19 08:28:06;;;;;;;17.05;5.43;;;;;;;9.46;43.79;97194.38;4990637;28;20478;-56
2022/02/19 08:30:34;;;;;;;12.45;4.22;;;;;;;10.19;43.67;97242.31;4995206;28;20046;-59
2022/02/19 08:33:01;;;;;;;15.90;3.95;;;;;;;10.50;42.14;97250.47;4993527;28;20060;-56
2022/02/19 08:35:28;;;;;;;7.82;2.97;;;;;;;10.14;41.44;97259.19;5004123;28;20501;-59
2022/02/19 08:37:55;;;;;;;5.45;2.10;;;;;;;10.42;40.91;97257.03;4997130;28;20468;-60
2022/02/19 08:40:21;;;;;;;8.30;2.50;;;;;;;10.65;40.63;97257.09;4993443;28;20317;-57
2022/02/19 08:42:49;;;;;;;7.72;2.78;;;;;;;10.72;40.80;97262.00;4991926;28;20062;-54
2022/02/19 08:45:16;;;;;;;8.02;2.90;;;;;;;10.94;40.57;97248.16;4992998;28;20053;-58
2022/02/19 08:47:44;;;;;;;8.10;1.65;;;;;;;10.90;39.24;97257.56;4996644;28;20847;-58
2022/02/19 08:50:14;;;;;;;4.88;1.48;;;;;;;10.39;39.28;97266.06;4995018;28;20046;-59
2022/02/19 08:52:42;;;;;;;5.45;1.58;;;;;;;10.60;39.23;97265.72;4990755;28;20050;-59
2022/02/19 08:55:11;;;;;;;8.15;1.63;;;;;;;10.17;39.65;97280.63;5006083;28;20092;-56
2022/02/19 08:57:38;;;;;;;5.35;1.88;;;;;;;10.34;39.98;97230.34;4994419;28;20077;-57
2022/02/19 09:00:08;;;;;;;6.93;2.05;;;;;;;10.76;39.54;97268.38;4992687;28;20061;-59
2022/02/19 09:02:34;;;;;;;7.20;1.80;;;;;;;10.09;39.87;97195.81;4993052;28;20248;-57
2022/02/19 09:05:01;;;;;;;5.43;1.50;;;;;;;10.42;40.07;97265.34;4997432;28;20137;-57
2022/02/19 09:07:28;;;;;;;8.10;2.17;;;;;;;10.86;40.12;97262.28;4999176;28;20065;-58
2022/02/19 09:09:55;;;;;;;6.53;2.22;;;;;;;10.31;40.01;97197.88;4992768;28;20237;-57
2022/02/19 09:12:22;;;;;;;6.28;2.00;;;;;;;10.73;40.31;97271.91;4998654;28;20045;-57
2022/02/19 09:14:49;;;;;;;4.70;2.03;;;;;;;10.78;39.68;97243.91;4992609;28;20429;-60
2022/02/19 09:17:16;;;;;;;5.45;1.88;;;;;;;10.93;39.16;97215.28;5007392;28;20049;-61
2022/02/19 09:19:43;;;;;;;3.88;1.60;;;;;;;10.75;39.30;97181.69;5003258;28;20528;-57
2022/02/19 09:22:10;;;;;;;4.63;2.63;;;;;;;11.27;38.76;97242.03;4999481;28;20493;-57
2022/02/19 09:24:37;;;;;;;6.20;1.25;;;;;;;11.17;38.36;97173.31;4996179;28;20051;-56
2022/02/19 09:27:04;;;;;;;6.03;1.55;;;;;;;11.88;38.44;97242.66;4994195;28;20050;-57
2022/02/19 09:29:31;;;;;;;6.55;1.65;;;;;;;11.42;38.54;97227.22;4994001;28;20076;-57
2022/02/19 09:31:58;;;;;;;15.18;4.43;;;;;;;11.36;38.19;97242.59;5008987;28;20484;-57
2022/02/19 09:34:25;;;;;;;14.68;3.92;;;;;;;10.91;38.93;97245.34;4999182;28;20054;-56
2022/02/19 09:36:51;;;;;;;10.27;3.13;;;;;;;11.15;39.00;97247.75;4996110;28;20056;-62
2022/02/19 09:39:19;;;;;;;23.05;5.68;;;;;;;11.43;38.89;97226.84;4991695;28;20204;-58
2022/02/19 09:41:48;;;;;;;5.63;2.08;;;;;;;11.56;37.43;97185.84;5002329;28;20053;-59
2022/02/19 09:44:16;;;;;;;3.67;1.73;;;;;;;12.08;37.07;97235.81;4998153;28;20559;-60
2022/02/19 09:46:46;;;;;;;39.42;13.60;;;;;;;12.17;36.73;97233.56;5006568;28;20042;-58
2022/02/19 09:49:16;;;;;;;306.92;232.75;;;;;;;12.10;37.04;97177.94;4998361;28;20054;-59
2022/02/19 09:51:43;;;;;;;4.82;3.22;;;;;;;12.51;35.74;97238.00;4991277;28;20474;-57
2022/02/19 09:54:09;;;;;;;5.20;1.45;;;;;;;12.53;35.63;97235.63;5002145;28;20054;-59
2022/02/19 09:56:36;;;;;;;3.75;1.40;;;;;;;12.51;35.69;97232.44;4997644;28;20525;-58
2022/02/19 09:59:06;;;;;;;2.80;1.23;;;;;;;12.41;35.40;97233.09;5001291;28;20437;-59
2022/02/19 10:01:32;;;;;;;4.78;1.52;;;;;;;10.11;36.16;96889.06;4998778;28;20101;-56
2022/02/19 10:04:02;;;;;;;6.90;1.73;;;;;;;12.37;35.98;97232.25;4990314;28;20054;-57
2022/02/19 10:06:31;;;;;;;4.13;1.40;;;;;;;12.76;35.44;97239.09;4988470;28;20056;-61
2022/02/19 10:09:18;;;;;;;3.78;1.50;;;;;;;12.88;34.54;97241.59;4987118;28;20133;-54
2022/02/19 10:11:47;;;;;;;2.05;1.15;;;;;;;12.77;34.74;97187.84;5019945;28;20058;-57
2022/02/19 10:14:31;;;;;;;7.78;2.00;;;;;;;13.29;34.31;97195.16;4993859;28;20480;-57
2022/02/19 10:17:04;;;;;;;2.85;1.38;;;;;;;13.56;34.17;97204.94;4986605;28;20445;-57
2022/02/19 10:19:47;;;;;;;5.23;1.60;;;;;;;13.91;33.96;97204.41;4989370;28;20065;-61
2022/02/19 10:22:30;;;;;;;8.10;1.60;;;;;;;14.13;33.51;97206.13;4987256;28;20116;-56
2022/02/19 10:25:03;;;;;;;2.47;1.48;;;;;;;14.15;33.82;97209.28;4982918;28;20082;-59
2022/02/19 10:27:51;;;;;;;4.28;1.58;;;;;;;13.75;34.21;97198.31;4983345;28;20125;-57
2022/02/19 10:30:20;;;;;;;5.50;1.77;;;;;;;14.07;34.02;97216.03;4998180;28;20077;-56
2022/02/19 10:32:52;;;;;;;9.90;2.08;;;;;;;14.24;33.77;97198.63;4983782;28;20060;-57
2022/02/19 10:35:32;;;;;;;5.00;1.52;;;;;;;14.37;33.39;97205.50;4983617;28;20135;-56
2022/02/19 10:38:05;;;;;;;7.78;2.80;;;;;;;14.24;33.49;97195.84;4982571;28;20061;-56
2022/02/19 10:40:42;;;;;;;4.32;1.83;;;;;;;13.92;33.50;97189.28;4984391;28;20054;-60
2022/02/19 10:43:11;;;;;;;3.72;1.63;;;;;;;14.20;33.68;97181.88;4984294;28;20046;-56
2022/02/19 10:45:55;;;;;;;4.90;1.45;;;;;;;14.05;33.32;97115.34;4984092;28;20501;-56
2022/02/19 10:48:34;;;;;;;4.18;1.67;;;;;;;14.65;32.64;97172.16;4984004;28;20141;-60
2022/02/19 10:51:08;;;;;;;5.70;1.88;;;;;;;13.98;33.42;97090.22;4984693;28;20456;-56
2022/02/19 10:53:38;;;;;;;8.70;1.70;;;;;;;14.23;32.89;97110.63;4987247;28;20085;-56
2022/02/19 10:56:16;;;;;;;4.32;1.25;;;;;;;14.60;33.20;97147.44;4987383;28;20077;-56
2022/02/19 10:59:03;;;;;;;4.20;1.80;;;;;;;15.00;32.64;97133.19;4986956;28;20137;-60
2022/02/19 11:01:49;;;;;;;4.55;1.75;;;;;;;14.76;32.56;97072.59;4987057;28;20046;-56
2022/02/19 11:04:21;;;;;;;3.25;1.70;;;;;;;15.08;32.54;97129.19;5018279;28;20065;-57
2022/02/19 11:06:49;;;;;;;3.88;2.05;;;;;;;15.21;32.06;97126.81;5018226;28;20607;-62
2022/02/19 11:09:16;;;;;;;4.95;2.03;;;;;;;15.25;32.17;97117.25;4986692;28;20476;-56
2022/02/19 11:11:45;;;;;;;8.35;2.97;;;;;;;15.48;32.20;97114.88;4985430;28;20057;-59
2022/02/19 11:14:14;;;;;;;11.00;4.57;;;;;;;15.64;32.42;97092.09;4986278;28;20433;-61
2022/02/19 11:16:42;;;;;;;16.17;4.60;;;;;;;16.02;32.21;97114.38;5017689;28;20057;-56
2022/02/19 11:19:14;;;;;;;7.10;2.97;;;;;;;16.00;31.69;97074.84;5016146;28;20153;-60
2022/02/19 11:21:40;;;;;;;9.13;3.53;;;;;;;16.04;31.32;97064.47;4987016;28;20051;-56
2022/02/19 11:24:09;;;;;;;14.52;3.55;;;;;;;16.46;31.81;97114.63;4986186;28;20549;-60
2022/02/19 11:26:37;;;;;;;6.78;2.30;;;;;;;15.98;31.34;97052.09;4986433;28;20054;-56
2022/02/19 11:29:14;;;;;;;6.95;2.35;;;;;;;16.56;31.62;97108.19;4985873;28;20050;-61
2022/02/19 11:31:43;;;;;;;7.57;2.67;;;;;;;16.67;31.16;97093.31;4986444;28;20052;-61
2022/02/19 11:34:11;;;;;;;4.80;2.08;;;;;;;16.53;30.87;97097.78;4986282;28;20054;-56
2022/02/19 11:36:38;;;;;;;6.93;2.28;;;;;;;16.24;30.94;97101.09;5017245;28;20062;-58
2022/02/19 11:39:05;;;;;;;4.85;2.20;;;;;;;15.54;31.71;97090.91;5001671;28;20049;-56
2022/02/19 11:41:40;;;;;;;5.97;2.60;;;;;;;15.06;32.58;97079.34;5024006;28;20055;-57
2022/02/19 11:44:26;;;;;;;5.40;2.35;;;;;;;15.37;33.10;97080.56;5025462;28;20058;-56